sensor_id;sensor_type;location;lat;lon;timestamp;P1;durP1;ratioP1;P2;durP2;ratioP2
15490;SDS011;7847;50.930;4.336;2023-04-08T00:01:11;0.40;;;0.40;;
15490;SDS011;7847;50.930;4.336;2023-04-08T00:03:37;0.50;;;0.50;;
15490;SDS011;7847;50.930;4.336;2023-04-08T00:06:03;0.33;;;0.33;;
15490;SDS011;7847;50.930;4.336;2023-04-08T00:08:29;0.40;;;0.40;;
15490;SDS011;7847;50.930;4.336;2023-04-08T00:10:56;0.43;;;0.43;;
15490;SDS011;7847;50.930;4.336;2023-04-08T00:13:22;0.40;;;0.40;;
15490;SDS011;7847;50.930;4.336;2023-04-08T00:15:48;0.40;;;0.40;;
15490;SDS011;7847;50.930;4.336;2023-04-08T00:18:15;0.40;;;0.40;;
15490;SDS011;7847;50.930;4.336;2023-04-08T00:20:42;0.40;;;0.40;;
15490;SDS011;7847;50.930;4.336;2023-04-08T00:23:08;0.33;;;0.33;;
15490;SDS011;7847;50.930;4.336;2023-04-08T00:25:34;0.40;;;0.40;;
15490;SDS011;7847;50.930;4.336;2023-04-08T00:28:00;0.40;;;0.40;;
15490;SDS011;7847;50.930;4.336;2023-04-08T00:30:26;0.40;;;0.40;;
15490;SDS011;7847;50.930;4.336;2023-04-08T00:32:52;0.40;;;0.40;;
15490;SDS011;7847;50.930;4.336;2023-04-08T00:35:19;0.30;;;0.30;;
15490;SDS011;7847;50.930;4.336;2023-04-08T00:37:45;0.40;;;0.40;;
15490;SDS011;7847;50.930;4.336;2023-04-08T00:40:12;0.40;;;0.40;;
15490;SDS011;7847;50.930;4.336;2023-04-08T00:42:38;0.37;;;0.37;;
15490;SDS011;7847;50.930;4.336;2023-04-08T00:45:04;0.40;;;0.40;;
15490;SDS011;7847;50.930;4.336;2023-04-08T00:47:31;0.30;;;0.30;;
15490;SDS011;7847;50.930;4.336;2023-04-08T00:49:57;0.40;;;0.40;;
15490;SDS011;7847;50.930;4.336;2023-04-08T00:52:23;0.30;;;0.30;;
15490;SDS011;7847;50.930;4.336;2023-04-08T00:54:49;0.40;;;0.40;;
15490;SDS011;7847;50.930;4.336;2023-04-08T00:57:15;0.40;;;0.40;;
15490;SDS011;7847;50.930;4.336;2023-04-08T00:59:41;0.30;;;0.30;;
15490;SDS011;7847;50.930;4.336;2023-04-08T01:02:15;0.40;;;0.40;;
15490;SDS011;7847;50.930;4.336;2023-04-08T01:07:17;0.40;;;0.40;;
15490;SDS011;7847;50.930;4.336;2023-04-08T01:09:47;0.40;;;0.40;;
15490;SDS011;7847;50.930;4.336;2023-04-08T01:12:26;0.40;;;0.40;;
15490;SDS011;7847;50.930;4.336;2023-04-08T01:14:59;0.33;;;0.33;;
15490;SDS011;7847;50.930;4.336;2023-04-08T01:17:25;0.40;;;0.40;;
15490;SDS011;7847;50.930;4.336;2023-04-08T01:19:52;0.30;;;0.30;;
15490;SDS011;7847;50.930;4.336;2023-04-08T01:24:45;0.40;;;0.40;;
15490;SDS011;7847;50.930;4.336;2023-04-08T01:27:12;0.33;;;0.33;;
15490;SDS011;7847;50.930;4.336;2023-04-08T01:29:39;0.40;;;0.40;;
15490;SDS011;7847;50.930;4.336;2023-04-08T01:32:06;0.40;;;0.40;;
15490;SDS011;7847;50.930;4.336;2023-04-08T01:34:33;0.30;;;0.30;;
15490;SDS011;7847;50.930;4.336;2023-04-08T01:36:59;0.40;;;0.40;;
15490;SDS011;7847;50.930;4.336;2023-04-08T01:39:26;0.40;;;0.40;;
15490;SDS011;7847;50.930;4.336;2023-04-08T01:41:53;0.40;;;0.40;;
15490;SDS011;7847;50.930;4.336;2023-04-08T01:44:21;0.40;;;0.40;;
15490;SDS011;7847;50.930;4.336;2023-04-08T01:46:47;0.30;;;0.30;;
15490;SDS011;7847;50.930;4.336;2023-04-08T01:49:14;0.40;;;0.40;;
15490;SDS011;7847;50.930;4.336;2023-04-08T01:51:41;0.40;;;0.40;;
15490;SDS011;7847;50.930;4.336;2023-04-08T01:54:08;0.40;;;0.40;;
15490;SDS011;7847;50.930;4.336;2023-04-08T01:56:35;0.40;;;0.40;;
15490;SDS011;7847;50.930;4.336;2023-04-08T01:59:02;0.40;;;0.40;;
15490;SDS011;7847;50.930;4.336;2023-04-08T02:01:35;0.40;;;0.40;;
15490;SDS011;7847;50.930;4.336;2023-04-08T02:04:02;0.40;;;0.40;;
15490;SDS011;7847;50.930;4.336;2023-04-08T02:06:28;0.40;;;0.40;;
15490;SDS011;7847;50.930;4.336;2023-04-08T02:08:56;0.40;;;0.40;;
15490;SDS011;7847;50.930;4.336;2023-04-08T02:11:22;0.50;;;0.50;;
15490;SDS011;7847;50.930;4.336;2023-04-08T02:13:49;0.40;;;0.40;;
15490;SDS011;7847;50.930;4.336;2023-04-08T02:16:20;0.40;;;0.40;;
15490;SDS011;7847;50.930;4.336;2023-04-08T02:18:52;0.40;;;0.40;;
15490;SDS011;7847;50.930;4.336;2023-04-08T02:21:21;0.33;;;0.33;;
15490;SDS011;7847;50.930;4.336;2023-04-08T02:23:50;0.40;;;0.40;;
15490;SDS011;7847;50.930;4.336;2023-04-08T02:26:17;0.40;;;0.40;;
15490;SDS011;7847;50.930;4.336;2023-04-08T02:28:43;0.40;;;0.40;;
15490;SDS011;7847;50.930;4.336;2023-04-08T02:31:10;0.40;;;0.40;;
15490;SDS011;7847;50.930;4.336;2023-04-08T02:33:40;0.40;;;0.40;;
15490;SDS011;7847;50.930;4.336;2023-04-08T02:36:07;0.40;;;0.40;;
15490;SDS011;7847;50.930;4.336;2023-04-08T02:38:34;0.30;;;0.30;;
15490;SDS011;7847;50.930;4.336;2023-04-08T02:41:00;0.40;;;0.40;;
15490;SDS011;7847;50.930;4.336;2023-04-08T02:43:26;0.40;;;0.40;;
15490;SDS011;7847;50.930;4.336;2023-04-08T02:46:01;0.40;;;0.40;;
15490;SDS011;7847;50.930;4.336;2023-04-08T02:48:28;0.40;;;0.40;;
15490;SDS011;7847;50.930;4.336;2023-04-08T02:50:54;0.40;;;0.40;;
15490;SDS011;7847;50.930;4.336;2023-04-08T02:53:22;0.40;;;0.40;;
15490;SDS011;7847;50.930;4.336;2023-04-08T02:55:48;0.40;;;0.40;;
15490;SDS011;7847;50.930;4.336;2023-04-08T02:58:14;0.30;;;0.30;;
15490;SDS011;7847;50.930;4.336;2023-04-08T03:00:40;0.40;;;0.40;;
15490;SDS011;7847;50.930;4.336;2023-04-08T03:03:06;0.40;;;0.40;;
15490;SDS011;7847;50.930;4.336;2023-04-08T03:05:32;0.40;;;0.40;;
15490;SDS011;7847;50.930;4.336;2023-04-08T03:07:59;0.40;;;0.40;;
15490;SDS011;7847;50.930;4.336;2023-04-08T03:10:25;0.40;;;0.40;;
15490;SDS011;7847;50.930;4.336;2023-04-08T03:12:51;0.40;;;0.40;;
15490;SDS011;7847;50.930;4.336;2023-04-08T03:15:17;0.40;;;0.40;;
15490;SDS011;7847;50.930;4.336;2023-04-08T03:17:43;0.50;;;0.50;;
15490;SDS011;7847;50.930;4.336;2023-04-08T03:20:09;0.40;;;0.40;;
15490;SDS011;7847;50.930;4.336;2023-04-08T03:22:36;0.40;;;0.40;;
15490;SDS011;7847;50.930;4.336;2023-04-08T03:25:02;0.40;;;0.40;;
15490;SDS011;7847;50.930;4.336;2023-04-08T03:27:28;0.40;;;0.40;;
15490;SDS011;7847;50.930;4.336;2023-04-08T03:29:54;0.40;;;0.40;;
15490;SDS011;7847;50.930;4.336;2023-04-08T03:32:22;0.37;;;0.37;;
15490;SDS011;7847;50.930;4.336;2023-04-08T03:34:48;0.40;;;0.40;;
15490;SDS011;7847;50.930;4.336;2023-04-08T03:37:15;0.37;;;0.37;;
15490;SDS011;7847;50.930;4.336;2023-04-08T03:39:41;0.40;;;0.40;;
15490;SDS011;7847;50.930;4.336;2023-04-08T03:42:07;0.40;;;0.40;;
15490;SDS011;7847;50.930;4.336;2023-04-08T03:44:33;0.40;;;0.40;;
15490;SDS011;7847;50.930;4.336;2023-04-08T03:47:00;0.40;;;0.40;;
15490;SDS011;7847;50.930;4.336;2023-04-08T03:49:26;0.40;;;0.40;;
15490;SDS011;7847;50.930;4.336;2023-04-08T03:51:52;0.40;;;0.40;;
15490;SDS011;7847;50.930;4.336;2023-04-08T03:54:18;0.40;;;0.40;;
15490;SDS011;7847;50.930;4.336;2023-04-08T03:56:44;0.40;;;0.40;;
15490;SDS011;7847;50.930;4.336;2023-04-08T03:59:10;0.30;;;0.30;;
15490;SDS011;7847;50.930;4.336;2023-04-08T04:01:36;0.40;;;0.40;;
15490;SDS011;7847;50.930;4.336;2023-04-08T04:04:02;0.40;;;0.40;;
15490;SDS011;7847;50.930;4.336;2023-04-08T04:06:28;0.40;;;0.40;;
15490;SDS011;7847;50.930;4.336;2023-04-08T04:08:55;0.40;;;0.40;;
15490;SDS011;7847;50.930;4.336;2023-04-08T04:11:21;0.40;;;0.40;;
15490;SDS011;7847;50.930;4.336;2023-04-08T04:13:47;0.40;;;0.40;;
15490;SDS011;7847;50.930;4.336;2023-04-08T04:16:13;0.40;;;0.40;;
15490;SDS011;7847;50.930;4.336;2023-04-08T04:18:39;0.37;;;0.37;;
15490;SDS011;7847;50.930;4.336;2023-04-08T04:21:05;0.40;;;0.40;;
15490;SDS011;7847;50.930;4.336;2023-04-08T04:23:32;0.40;;;0.40;;
15490;SDS011;7847;50.930;4.336;2023-04-08T04:25:58;0.40;;;0.40;;
15490;SDS011;7847;50.930;4.336;2023-04-08T04:28:24;0.40;;;0.40;;
15490;SDS011;7847;50.930;4.336;2023-04-08T04:30:50;0.50;;;0.50;;
15490;SDS011;7847;50.930;4.336;2023-04-08T04:33:16;0.40;;;0.40;;
15490;SDS011;7847;50.930;4.336;2023-04-08T04:35:42;0.40;;;0.40;;
15490;SDS011;7847;50.930;4.336;2023-04-08T04:38:08;0.40;;;0.40;;
15490;SDS011;7847;50.930;4.336;2023-04-08T04:40:37;0.40;;;0.40;;
15490;SDS011;7847;50.930;4.336;2023-04-08T04:43:03;0.40;;;0.40;;
15490;SDS011;7847;50.930;4.336;2023-04-08T04:45:29;0.40;;;0.40;;
15490;SDS011;7847;50.930;4.336;2023-04-08T04:47:55;0.40;;;0.40;;
15490;SDS011;7847;50.930;4.336;2023-04-08T04:50:21;0.40;;;0.40;;
15490;SDS011;7847;50.930;4.336;2023-04-08T04:52:48;0.40;;;0.40;;
15490;SDS011;7847;50.930;4.336;2023-04-08T04:55:14;0.40;;;0.40;;
15490;SDS011;7847;50.930;4.336;2023-04-08T04:57:40;0.40;;;0.40;;
15490;SDS011;7847;50.930;4.336;2023-04-08T05:00:06;0.40;;;0.40;;
15490;SDS011;7847;50.930;4.336;2023-04-08T05:02:32;0.40;;;0.40;;
15490;SDS011;7847;50.930;4.336;2023-04-08T05:04:59;0.30;;;0.30;;
15490;SDS011;7847;50.930;4.336;2023-04-08T05:07:25;0.40;;;0.40;;
15490;SDS011;7847;50.930;4.336;2023-04-08T05:09:51;0.40;;;0.40;;
15490;SDS011;7847;50.930;4.336;2023-04-08T05:12:17;0.40;;;0.40;;
15490;SDS011;7847;50.930;4.336;2023-04-08T05:14:44;0.40;;;0.40;;
15490;SDS011;7847;50.930;4.336;2023-04-08T05:17:10;0.40;;;0.40;;
15490;SDS011;7847;50.930;4.336;2023-04-08T05:19:36;0.37;;;0.37;;
15490;SDS011;7847;50.930;4.336;2023-04-08T05:22:02;0.40;;;0.40;;
15490;SDS011;7847;50.930;4.336;2023-04-08T05:24:28;0.50;;;0.50;;
15490;SDS011;7847;50.930;4.336;2023-04-08T05:26:55;0.50;;;0.50;;
15490;SDS011;7847;50.930;4.336;2023-04-08T05:29:21;0.40;;;0.40;;
15490;SDS011;7847;50.930;4.336;2023-04-08T05:31:48;0.40;;;0.40;;
15490;SDS011;7847;50.930;4.336;2023-04-08T05:34:14;0.40;;;0.40;;
15490;SDS011;7847;50.930;4.336;2023-04-08T05:36:46;0.40;;;0.40;;
15490;SDS011;7847;50.930;4.336;2023-04-08T05:39:15;0.40;;;0.40;;
15490;SDS011;7847;50.930;4.336;2023-04-08T05:41:42;0.40;;;0.40;;
15490;SDS011;7847;50.930;4.336;2023-04-08T05:44:08;0.40;;;0.40;;
15490;SDS011;7847;50.930;4.336;2023-04-08T05:46:36;0.40;;;0.40;;
15490;SDS011;7847;50.930;4.336;2023-04-08T05:49:02;0.30;;;0.30;;
15490;SDS011;7847;50.930;4.336;2023-04-08T05:51:28;0.40;;;0.40;;
15490;SDS011;7847;50.930;4.336;2023-04-08T05:53:54;0.40;;;0.40;;
15490;SDS011;7847;50.930;4.336;2023-04-08T05:56:20;0.40;;;0.40;;
15490;SDS011;7847;50.930;4.336;2023-04-08T05:58:46;0.30;;;0.30;;
15490;SDS011;7847;50.930;4.336;2023-04-08T06:01:13;0.40;;;0.40;;
15490;SDS011;7847;50.930;4.336;2023-04-08T06:03:39;0.40;;;0.40;;
15490;SDS011;7847;50.930;4.336;2023-04-08T06:06:09;0.40;;;0.40;;
15490;SDS011;7847;50.930;4.336;2023-04-08T06:08:38;0.40;;;0.40;;
15490;SDS011;7847;50.930;4.336;2023-04-08T06:11:05;0.30;;;0.30;;
15490;SDS011;7847;50.930;4.336;2023-04-08T06:13:31;0.40;;;0.40;;
15490;SDS011;7847;50.930;4.336;2023-04-08T06:15:57;0.30;;;0.30;;
15490;SDS011;7847;50.930;4.336;2023-04-08T06:18:24;0.40;;;0.40;;
15490;SDS011;7847;50.930;4.336;2023-04-08T06:20:50;0.40;;;0.40;;
15490;SDS011;7847;50.930;4.336;2023-04-08T06:23:16;0.40;;;0.40;;
15490;SDS011;7847;50.930;4.336;2023-04-08T06:25:42;0.40;;;0.40;;
15490;SDS011;7847;50.930;4.336;2023-04-08T06:28:08;0.30;;;0.30;;
15490;SDS011;7847;50.930;4.336;2023-04-08T06:30:34;0.30;;;0.30;;
15490;SDS011;7847;50.930;4.336;2023-04-08T06:33:00;0.40;;;0.40;;
15490;SDS011;7847;50.930;4.336;2023-04-08T06:35:26;0.50;;;0.50;;
15490;SDS011;7847;50.930;4.336;2023-04-08T06:37:52;0.40;;;0.40;;
15490;SDS011;7847;50.930;4.336;2023-04-08T06:40:18;0.30;;;0.30;;
15490;SDS011;7847;50.930;4.336;2023-04-08T06:42:44;0.50;;;0.50;;
15490;SDS011;7847;50.930;4.336;2023-04-08T06:45:10;0.40;;;0.40;;
15490;SDS011;7847;50.930;4.336;2023-04-08T06:47:37;0.40;;;0.40;;
15490;SDS011;7847;50.930;4.336;2023-04-08T06:50:03;0.40;;;0.40;;
15490;SDS011;7847;50.930;4.336;2023-04-08T06:52:29;0.40;;;0.40;;
15490;SDS011;7847;50.930;4.336;2023-04-08T06:54:55;0.40;;;0.40;;
15490;SDS011;7847;50.930;4.336;2023-04-08T06:57:21;0.40;;;0.40;;
15490;SDS011;7847;50.930;4.336;2023-04-08T06:59:50;0.30;;;0.30;;
15490;SDS011;7847;50.930;4.336;2023-04-08T07:02:17;0.40;;;0.40;;
15490;SDS011;7847;50.930;4.336;2023-04-08T07:04:43;0.30;;;0.30;;
15490;SDS011;7847;50.930;4.336;2023-04-08T07:07:10;0.40;;;0.40;;
15490;SDS011;7847;50.930;4.336;2023-04-08T07:09:36;0.33;;;0.33;;
15490;SDS011;7847;50.930;4.336;2023-04-08T07:12:02;0.37;;;0.37;;
15490;SDS011;7847;50.930;4.336;2023-04-08T07:14:28;0.40;;;0.40;;
15490;SDS011;7847;50.930;4.336;2023-04-08T07:16:55;0.40;;;0.40;;
15490;SDS011;7847;50.930;4.336;2023-04-08T07:19:21;0.40;;;0.40;;
15490;SDS011;7847;50.930;4.336;2023-04-08T07:21:49;0.40;;;0.40;;
15490;SDS011;7847;50.930;4.336;2023-04-08T07:24:16;0.30;;;0.30;;
15490;SDS011;7847;50.930;4.336;2023-04-08T07:26:43;0.30;;;0.30;;
15490;SDS011;7847;50.930;4.336;2023-04-08T07:29:09;0.37;;;0.37;;
15490;SDS011;7847;50.930;4.336;2023-04-08T07:31:35;0.40;;;0.40;;
15490;SDS011;7847;50.930;4.336;2023-04-08T07:34:01;0.30;;;0.30;;
15490;SDS011;7847;50.930;4.336;2023-04-08T07:36:27;0.30;;;0.30;;
15490;SDS011;7847;50.930;4.336;2023-04-08T07:38:53;0.40;;;0.40;;
15490;SDS011;7847;50.930;4.336;2023-04-08T07:41:19;0.40;;;0.40;;
15490;SDS011;7847;50.930;4.336;2023-04-08T07:43:45;0.37;;;0.37;;
15490;SDS011;7847;50.930;4.336;2023-04-08T07:46:12;0.40;;;0.40;;
15490;SDS011;7847;50.930;4.336;2023-04-08T07:48:38;0.30;;;0.30;;
15490;SDS011;7847;50.930;4.336;2023-04-08T07:51:04;0.40;;;0.40;;
15490;SDS011;7847;50.930;4.336;2023-04-08T07:53:31;0.40;;;0.40;;
15490;SDS011;7847;50.930;4.336;2023-04-08T07:55:58;0.30;;;0.30;;
15490;SDS011;7847;50.930;4.336;2023-04-08T07:58:24;0.40;;;0.40;;
15490;SDS011;7847;50.930;4.336;2023-04-08T08:00:51;0.30;;;0.30;;
15490;SDS011;7847;50.930;4.336;2023-04-08T08:03:17;0.30;;;0.30;;
15490;SDS011;7847;50.930;4.336;2023-04-08T08:05:43;0.40;;;0.40;;
15490;SDS011;7847;50.930;4.336;2023-04-08T08:08:09;0.40;;;0.40;;
15490;SDS011;7847;50.930;4.336;2023-04-08T08:10:39;0.30;;;0.30;;
15490;SDS011;7847;50.930;4.336;2023-04-08T08:13:05;0.30;;;0.30;;
15490;SDS011;7847;50.930;4.336;2023-04-08T08:15:32;0.30;;;0.30;;
15490;SDS011;7847;50.930;4.336;2023-04-08T08:17:58;0.40;;;0.40;;
15490;SDS011;7847;50.930;4.336;2023-04-08T08:20:25;0.40;;;0.40;;
15490;SDS011;7847;50.930;4.336;2023-04-08T08:22:51;0.30;;;0.30;;
15490;SDS011;7847;50.930;4.336;2023-04-08T08:25:17;0.30;;;0.30;;
15490;SDS011;7847;50.930;4.336;2023-04-08T08:27:43;0.40;;;0.40;;
15490;SDS011;7847;50.930;4.336;2023-04-08T08:30:09;0.30;;;0.30;;
15490;SDS011;7847;50.930;4.336;2023-04-08T08:32:36;0.30;;;0.30;;
15490;SDS011;7847;50.930;4.336;2023-04-08T08:35:02;0.33;;;0.33;;
15490;SDS011;7847;50.930;4.336;2023-04-08T08:37:28;0.40;;;0.40;;
15490;SDS011;7847;50.930;4.336;2023-04-08T08:39:54;0.30;;;0.30;;
15490;SDS011;7847;50.930;4.336;2023-04-08T08:42:24;0.30;;;0.30;;
15490;SDS011;7847;50.930;4.336;2023-04-08T08:44:50;0.40;;;0.40;;
15490;SDS011;7847;50.930;4.336;2023-04-08T08:47:17;0.30;;;0.30;;
15490;SDS011;7847;50.930;4.336;2023-04-08T08:49:43;0.30;;;0.30;;
15490;SDS011;7847;50.930;4.336;2023-04-08T08:52:09;0.33;;;0.33;;
15490;SDS011;7847;50.930;4.336;2023-04-08T08:54:36;0.30;;;0.30;;
15490;SDS011;7847;50.930;4.336;2023-04-08T08:57:02;0.40;;;0.40;;
15490;SDS011;7847;50.930;4.336;2023-04-08T08:59:28;0.30;;;0.30;;
15490;SDS011;7847;50.930;4.336;2023-04-08T09:01:54;0.40;;;0.40;;
15490;SDS011;7847;50.930;4.336;2023-04-08T09:04:20;0.40;;;0.40;;
15490;SDS011;7847;50.930;4.336;2023-04-08T09:06:47;0.40;;;0.40;;
15490;SDS011;7847;50.930;4.336;2023-04-08T09:09:15;0.30;;;0.30;;
15490;SDS011;7847;50.930;4.336;2023-04-08T09:11:42;0.30;;;0.30;;
15490;SDS011;7847;50.930;4.336;2023-04-08T09:14:18;0.30;;;0.30;;
15490;SDS011;7847;50.930;4.336;2023-04-08T09:16:44;0.40;;;0.40;;
15490;SDS011;7847;50.930;4.336;2023-04-08T09:19:10;0.30;;;0.30;;
15490;SDS011;7847;50.930;4.336;2023-04-08T09:21:37;0.37;;;0.37;;
15490;SDS011;7847;50.930;4.336;2023-04-08T09:24:05;0.40;;;0.40;;
15490;SDS011;7847;50.930;4.336;2023-04-08T09:26:31;0.30;;;0.30;;
15490;SDS011;7847;50.930;4.336;2023-04-08T09:29:05;0.30;;;0.30;;
15490;SDS011;7847;50.930;4.336;2023-04-08T09:31:32;0.30;;;0.30;;
15490;SDS011;7847;50.930;4.336;2023-04-08T09:34:00;0.30;;;0.30;;
15490;SDS011;7847;50.930;4.336;2023-04-08T09:36:33;0.30;;;0.30;;
15490;SDS011;7847;50.930;4.336;2023-04-08T09:39:00;0.30;;;0.30;;
15490;SDS011;7847;50.930;4.336;2023-04-08T09:41:26;0.30;;;0.30;;
15490;SDS011;7847;50.930;4.336;2023-04-08T09:43:53;0.30;;;0.30;;
15490;SDS011;7847;50.930;4.336;2023-04-08T09:46:24;0.27;;;0.27;;
15490;SDS011;7847;50.930;4.336;2023-04-08T09:48:55;0.30;;;0.30;;
15490;SDS011;7847;50.930;4.336;2023-04-08T09:51:23;0.30;;;0.30;;
15490;SDS011;7847;50.930;4.336;2023-04-08T09:53:58;0.30;;;0.30;;
15490;SDS011;7847;50.930;4.336;2023-04-08T09:56:28;0.30;;;0.30;;
15490;SDS011;7847;50.930;4.336;2023-04-08T09:58:59;0.40;;;0.40;;
15490;SDS011;7847;50.930;4.336;2023-04-08T10:01:36;0.30;;;0.30;;
15490;SDS011;7847;50.930;4.336;2023-04-08T10:04:04;0.30;;;0.30;;
15490;SDS011;7847;50.930;4.336;2023-04-08T10:06:30;0.30;;;0.30;;
15490;SDS011;7847;50.930;4.336;2023-04-08T10:08:57;0.30;;;0.30;;
15490;SDS011;7847;50.930;4.336;2023-04-08T10:11:24;0.30;;;0.30;;
15490;SDS011;7847;50.930;4.336;2023-04-08T10:13:50;0.30;;;0.30;;
15490;SDS011;7847;50.930;4.336;2023-04-08T10:16:17;0.30;;;0.30;;
15490;SDS011;7847;50.930;4.336;2023-04-08T10:18:45;0.30;;;0.30;;
15490;SDS011;7847;50.930;4.336;2023-04-08T10:21:32;0.30;;;0.30;;
15490;SDS011;7847;50.930;4.336;2023-04-08T10:23:59;0.40;;;0.40;;
15490;SDS011;7847;50.930;4.336;2023-04-08T10:26:48;0.30;;;0.30;;
15490;SDS011;7847;50.930;4.336;2023-04-08T10:31:50;0.30;;;0.30;;
15490;SDS011;7847;50.930;4.336;2023-04-08T10:34:16;0.30;;;0.30;;
15490;SDS011;7847;50.930;4.336;2023-04-08T10:36:43;0.30;;;0.30;;
15490;SDS011;7847;50.930;4.336;2023-04-08T10:39:09;0.30;;;0.30;;
15490;SDS011;7847;50.930;4.336;2023-04-08T10:41:40;0.30;;;0.30;;
15490;SDS011;7847;50.930;4.336;2023-04-08T10:44:25;0.30;;;0.30;;
15490;SDS011;7847;50.930;4.336;2023-04-08T10:46:52;0.30;;;0.30;;
15490;SDS011;7847;50.930;4.336;2023-04-08T10:49:18;0.30;;;0.30;;
15490;SDS011;7847;50.930;4.336;2023-04-08T10:51:46;0.30;;;0.30;;
15490;SDS011;7847;50.930;4.336;2023-04-08T10:54:14;0.30;;;0.30;;
15490;SDS011;7847;50.930;4.336;2023-04-08T10:56:47;0.27;;;0.27;;
15490;SDS011;7847;50.930;4.336;2023-04-08T10:59:14;0.30;;;0.30;;
15490;SDS011;7847;50.930;4.336;2023-04-08T11:01:41;0.30;;;0.30;;
15490;SDS011;7847;50.930;4.336;2023-04-08T11:04:15;0.30;;;0.30;;
15490;SDS011;7847;50.930;4.336;2023-04-08T11:06:42;0.30;;;0.30;;
15490;SDS011;7847;50.930;4.336;2023-04-08T11:09:10;0.30;;;0.30;;
15490;SDS011;7847;50.930;4.336;2023-04-08T11:11:36;0.30;;;0.30;;
15490;SDS011;7847;50.930;4.336;2023-04-08T11:14:02;0.30;;;0.30;;
15490;SDS011;7847;50.930;4.336;2023-04-08T11:16:29;0.30;;;0.30;;
15490;SDS011;7847;50.930;4.336;2023-04-08T11:18:56;0.30;;;0.30;;
15490;SDS011;7847;50.930;4.336;2023-04-08T11:21:23;0.30;;;0.30;;
15490;SDS011;7847;50.930;4.336;2023-04-08T11:23:49;0.30;;;0.30;;
15490;SDS011;7847;50.930;4.336;2023-04-08T11:26:16;0.30;;;0.30;;
15490;SDS011;7847;50.930;4.336;2023-04-08T11:28:43;0.40;;;0.40;;
15490;SDS011;7847;50.930;4.336;2023-04-08T11:31:10;0.30;;;0.30;;
15490;SDS011;7847;50.930;4.336;2023-04-08T11:33:36;0.30;;;0.30;;
15490;SDS011;7847;50.930;4.336;2023-04-08T11:36:02;0.30;;;0.30;;
15490;SDS011;7847;50.930;4.336;2023-04-08T11:38:29;0.30;;;0.30;;
15490;SDS011;7847;50.930;4.336;2023-04-08T11:40:55;0.30;;;0.30;;
15490;SDS011;7847;50.930;4.336;2023-04-08T11:43:25;0.30;;;0.30;;
15490;SDS011;7847;50.930;4.336;2023-04-08T11:45:51;0.40;;;0.40;;
15490;SDS011;7847;50.930;4.336;2023-04-08T11:48:17;0.30;;;0.30;;
15490;SDS011;7847;50.930;4.336;2023-04-08T11:50:43;0.30;;;0.30;;
15490;SDS011;7847;50.930;4.336;2023-04-08T11:53:20;0.30;;;0.30;;
15490;SDS011;7847;50.930;4.336;2023-04-08T11:55:46;0.30;;;0.30;;
15490;SDS011;7847;50.930;4.336;2023-04-08T11:58:12;0.30;;;0.30;;
15490;SDS011;7847;50.930;4.336;2023-04-08T12:00:38;0.30;;;0.30;;
15490;SDS011;7847;50.930;4.336;2023-04-08T12:03:05;0.30;;;0.30;;
15490;SDS011;7847;50.930;4.336;2023-04-08T12:05:31;0.30;;;0.30;;
15490;SDS011;7847;50.930;4.336;2023-04-08T12:07:57;0.30;;;0.30;;
15490;SDS011;7847;50.930;4.336;2023-04-08T12:10:23;0.20;;;0.20;;
15490;SDS011;7847;50.930;4.336;2023-04-08T12:12:50;0.20;;;0.20;;
15490;SDS011;7847;50.930;4.336;2023-04-08T12:15:16;0.20;;;0.20;;
15490;SDS011;7847;50.930;4.336;2023-04-08T12:17:42;0.30;;;0.30;;
15490;SDS011;7847;50.930;4.336;2023-04-08T12:20:09;0.20;;;0.20;;
15490;SDS011;7847;50.930;4.336;2023-04-08T12:22:35;0.30;;;0.30;;
15490;SDS011;7847;50.930;4.336;2023-04-08T12:25:02;0.30;;;0.30;;
15490;SDS011;7847;50.930;4.336;2023-04-08T12:27:31;0.30;;;0.30;;
15490;SDS011;7847;50.930;4.336;2023-04-08T12:29:58;0.20;;;0.20;;
15490;SDS011;7847;50.930;4.336;2023-04-08T12:32:24;0.30;;;0.30;;
15490;SDS011;7847;50.930;4.336;2023-04-08T12:34:51;0.30;;;0.30;;
15490;SDS011;7847;50.930;4.336;2023-04-08T12:37:17;0.22;;;0.22;;
15490;SDS011;7847;50.930;4.336;2023-04-08T12:39:44;0.30;;;0.30;;
15490;SDS011;7847;50.930;4.336;2023-04-08T12:42:11;0.30;;;0.30;;
15490;SDS011;7847;50.930;4.336;2023-04-08T12:44:38;0.30;;;0.30;;
15490;SDS011;7847;50.930;4.336;2023-04-08T12:47:04;0.30;;;0.30;;
15490;SDS011;7847;50.930;4.336;2023-04-08T12:49:30;0.30;;;0.30;;
15490;SDS011;7847;50.930;4.336;2023-04-08T12:51:56;0.30;;;0.30;;
15490;SDS011;7847;50.930;4.336;2023-04-08T12:54:22;0.25;;;0.25;;
15490;SDS011;7847;50.930;4.336;2023-04-08T12:56:49;0.30;;;0.30;;
15490;SDS011;7847;50.930;4.336;2023-04-08T12:59:15;0.20;;;0.20;;
15490;SDS011;7847;50.930;4.336;2023-04-08T13:01:41;0.20;;;0.20;;
15490;SDS011;7847;50.930;4.336;2023-04-08T13:04:07;0.30;;;0.30;;
15490;SDS011;7847;50.930;4.336;2023-04-08T13:06:33;0.30;;;0.30;;
15490;SDS011;7847;50.930;4.336;2023-04-08T13:08:59;0.30;;;0.30;;
15490;SDS011;7847;50.930;4.336;2023-04-08T13:11:25;0.30;;;0.30;;
15490;SDS011;7847;50.930;4.336;2023-04-08T13:13:52;0.30;;;0.30;;
15490;SDS011;7847;50.930;4.336;2023-04-08T13:16:18;0.30;;;0.30;;
15490;SDS011;7847;50.930;4.336;2023-04-08T13:18:44;0.30;;;0.30;;
15490;SDS011;7847;50.930;4.336;2023-04-08T13:21:10;0.30;;;0.30;;
15490;SDS011;7847;50.930;4.336;2023-04-08T13:23:36;0.20;;;0.20;;
15490;SDS011;7847;50.930;4.336;2023-04-08T13:26:02;0.30;;;0.30;;
15490;SDS011;7847;50.930;4.336;2023-04-08T13:28:28;0.20;;;0.20;;
15490;SDS011;7847;50.930;4.336;2023-04-08T13:30:55;0.20;;;0.20;;
15490;SDS011;7847;50.930;4.336;2023-04-08T13:33:22;0.20;;;0.20;;
15490;SDS011;7847;50.930;4.336;2023-04-08T13:35:48;0.30;;;0.30;;
15490;SDS011;7847;50.930;4.336;2023-04-08T13:38:14;0.30;;;0.30;;
15490;SDS011;7847;50.930;4.336;2023-04-08T13:40:40;0.30;;;0.30;;
15490;SDS011;7847;50.930;4.336;2023-04-08T13:43:07;0.20;;;0.20;;
15490;SDS011;7847;50.930;4.336;2023-04-08T13:45:33;0.20;;;0.20;;
15490;SDS011;7847;50.930;4.336;2023-04-08T13:48:00;0.28;;;0.28;;
15490;SDS011;7847;50.930;4.336;2023-04-08T13:50:26;0.20;;;0.20;;
15490;SDS011;7847;50.930;4.336;2023-04-08T13:52:52;0.25;;;0.25;;
15490;SDS011;7847;50.930;4.336;2023-04-08T13:55:18;0.20;;;0.20;;
15490;SDS011;7847;50.930;4.336;2023-04-08T13:57:44;0.20;;;0.20;;
15490;SDS011;7847;50.930;4.336;2023-04-08T14:00:11;0.20;;;0.20;;
15490;SDS011;7847;50.930;4.336;2023-04-08T14:02:37;0.22;;;0.22;;
15490;SDS011;7847;50.930;4.336;2023-04-08T14:05:03;0.30;;;0.30;;
15490;SDS011;7847;50.930;4.336;2023-04-08T14:07:29;0.20;;;0.20;;
15490;SDS011;7847;50.930;4.336;2023-04-08T14:09:55;0.20;;;0.20;;
15490;SDS011;7847;50.930;4.336;2023-04-08T14:12:21;0.20;;;0.20;;
15490;SDS011;7847;50.930;4.336;2023-04-08T14:14:48;0.25;;;0.25;;
15490;SDS011;7847;50.930;4.336;2023-04-08T14:17:14;0.30;;;0.30;;
15490;SDS011;7847;50.930;4.336;2023-04-08T14:19:40;0.20;;;0.20;;
15490;SDS011;7847;50.930;4.336;2023-04-08T14:22:06;0.20;;;0.20;;
15490;SDS011;7847;50.930;4.336;2023-04-08T14:24:32;0.20;;;0.20;;
15490;SDS011;7847;50.930;4.336;2023-04-08T14:26:58;0.20;;;0.20;;
15490;SDS011;7847;50.930;4.336;2023-04-08T14:29:24;0.20;;;0.20;;
15490;SDS011;7847;50.930;4.336;2023-04-08T14:31:50;0.30;;;0.30;;
15490;SDS011;7847;50.930;4.336;2023-04-08T14:34:17;0.20;;;0.20;;
15490;SDS011;7847;50.930;4.336;2023-04-08T14:36:43;0.30;;;0.30;;
15490;SDS011;7847;50.930;4.336;2023-04-08T14:39:09;0.20;;;0.20;;
15490;SDS011;7847;50.930;4.336;2023-04-08T14:41:36;0.30;;;0.30;;
15490;SDS011;7847;50.930;4.336;2023-04-08T14:44:02;0.30;;;0.30;;
15490;SDS011;7847;50.930;4.336;2023-04-08T14:46:29;0.30;;;0.30;;
15490;SDS011;7847;50.930;4.336;2023-04-08T14:48:55;0.30;;;0.30;;
15490;SDS011;7847;50.930;4.336;2023-04-08T14:51:22;0.20;;;0.20;;
15490;SDS011;7847;50.930;4.336;2023-04-08T14:53:49;0.20;;;0.20;;
15490;SDS011;7847;50.930;4.336;2023-04-08T14:56:15;0.30;;;0.30;;
15490;SDS011;7847;50.930;4.336;2023-04-08T14:58:41;0.20;;;0.20;;
15490;SDS011;7847;50.930;4.336;2023-04-08T15:01:07;0.20;;;0.20;;
15490;SDS011;7847;50.930;4.336;2023-04-08T15:03:33;0.20;;;0.20;;
15490;SDS011;7847;50.930;4.336;2023-04-08T15:05:59;0.20;;;0.20;;